Time;durP1;ratioP1;P1;durP2;ratioP2;P2;SDS_P1;SDS_P2;PMS_P1;PMS_P2;Temp;Humidity;BMP_temperature;BMP_pressure;BME280_temperature;BME280_humidity;BME280_pressure;Samples;Min_cycle;Max_cycle;Signal;HPM_P1;HPM_P2
2021/10/01 00:02:08;;;;;;;2.83;1.55;;;;;;;13.00;60.99;100936.78;10307993;28;20065;-62
2021/10/01 00:07:11;;;;;;;3.33;1.60;;;;;;;12.92;61.30;100933.88;10301309;28;20046;-62
2021/10/01 00:12:12;;;;;;;3.15;1.80;;;;;;;12.92;61.09;100939.22;10303279;28;20062;-65
2021/10/01 00:17:14;;;;;;;1.42;1.20;;;;;;;12.89;61.21;100923.41;10296133;28;20704;-62
2021/10/01 00:22:16;;;;;;;3.53;1.60;;;;;;;12.83;61.49;100913.22;10299844;28;20104;-62
2021/10/01 00:27:18;;;;;;;4.30;1.67;;;;;;;12.76;61.39;100912.00;10301226;28;20135;-62
2021/10/01 00:32:20;;;;;;;2.78;1.30;;;;;;;12.65;61.50;100915.53;10301090;28;20137;-62
2021/10/01 00:37:21;;;;;;;4.50;1.45;;;;;;;12.62;61.64;100905.09;10304227;28;20720;-61
2021/10/01 00:42:23;;;;;;;3.45;1.80;;;;;;;12.57;61.94;100907.28;10297877;28;20046;-62
2021/10/01 00:47:24;;;;;;;2.63;1.35;;;;;;;12.55;62.09;100902.91;10301755;28;20046;-62
2021/10/01 00:52:26;;;;;;;3.40;1.40;;;;;;;12.52;62.00;100896.94;10302945;28;20101;-62
2021/10/01 00:57:27;;;;;;;6.10;2.03;;;;;;;12.49;62.65;100907.88;10301229;28;20105;-63
2021/10/01 01:02:29;;;;;;;2.85;1.63;;;;;;;12.41;62.50;100897.78;10295541;28;20503;-62
2021/10/01 01:07:50;;;;;;;2.72;1.73;;;;;;;12.34;62.68;100885.88;10300964;28;20484;-62
2021/10/01 01:13:02;;;;;;;2.92;1.52;;;;;;;12.34;62.96;100884.09;10291269;28;20054;-62
2021/10/01 01:18:30;;;;;;;3.70;1.80;;;;;;;12.33;62.86;100874.38;10298950;28;20069;-62
2021/10/01 01:23:31;;;;;;;3.80;1.90;;;;;;;12.27;62.92;100877.50;10297324;28;20644;-62
2021/10/01 01:28:58;;;;;;;4.85;1.73;;;;;;;12.23;62.70;100873.38;10303561;28;20502;-62
2021/10/01 01:34:01;;;;;;;3.42;1.17;;;;;;;12.18;62.52;100865.72;10295128;28;20054;-61
2021/10/01 01:39:06;;;;;;;2.65;1.30;;;;;;;12.11;62.68;100852.97;10302174;28;20133;-61
2021/10/01 01:44:10;;;;;;;2.42;1.20;;;;;;;12.08;62.71;100855.88;10299503;28;20747;-62
2021/10/01 01:49:13;;;;;;;;;;;;;;;12.02;63.49;100842.06;10302178;28;20042;-62
2021/10/01 01:54:17;;;;;;;3.63;1.30;;;;;;;12.04;63.39;100839.28;10291155;28;20324;-62
2021/10/01 01:59:21;;;;;;;3.35;1.48;;;;;;;12.05;63.33;100835.63;10296294;28;20113;-62
2021/10/01 02:04:25;;;;;;;3.08;1.55;;;;;;;11.93;63.19;100834.75;10297302;28;20480;-62
2021/10/01 02:09:31;;;;;;;2.33;1.30;;;;;;;11.83;64.03;100828.41;10299371;28;20046;-62
2021/10/01 02:14:38;;;;;;;3.60;1.58;;;;;;;11.79;64.20;100813.59;10291660;28;20054;-63
2021/10/01 02:19:42;;;;;;;3.20;1.60;;;;;;;11.84;64.20;100820.28;10300103;28;20047;-62
2021/10/01 02:24:44;;;;;;;3.13;1.70;;;;;;;11.84;64.61;100808.75;10293935;28;20637;-63
2021/10/01 02:30:00;;;;;;;3.95;1.40;;;;;;;11.77;64.81;100804.84;10301226;28;20042;-63
2021/10/01 02:35:05;;;;;;;3.00;1.27;;;;;;;11.77;65.32;100802.19;10301110;28;20081;-67
2021/10/01 02:40:08;;;;;;;5.53;1.55;;;;;;;11.69;65.22;100792.09;10305577;28;20104;-62
2021/10/01 02:45:10;;;;;;;2.10;1.30;;;;;;;11.59;65.79;100796.44;10289500;28;20042;-63
2021/10/01 02:50:17;;;;;;;3.85;1.83;;;;;;;11.55;65.65;100789.66;10298857;28;20054;-63
2021/10/01 02:55:24;;;;;;;4.18;1.70;;;;;;;11.50;66.01;100790.03;10305165;28;20090;-62
2021/10/01 03:00:29;;;;;;;3.65;1.70;;;;;;;11.42;66.36;100781.72;10318371;28;20058;-63
2021/10/01 03:05:30;;;;;;;;;;;;;;;11.35;66.67;100780.50;10307406;28;20046;-62
2021/10/01 03:10:32;;;;;;;4.32;2.42;;;;;;;11.28;66.70;100772.97;10307033;28;19957;-63
2021/10/01 03:15:34;;;;;;;2.72;1.75;;;;;;;11.24;67.03;100770.66;10302193;28;20508;-63
2021/10/01 03:20:36;;;;;;;3.35;1.75;;;;;;;11.15;67.21;100764.19;10303139;28;20133;-62
2021/10/01 03:25:38;;;;;;;4.95;1.85;;;;;;;11.13;67.56;100766.97;10298346;28;20140;-62
2021/10/01 03:30:40;;;;;;;3.10;2.03;;;;;;;11.09;67.42;100759.31;10298895;28;20603;-62
2021/10/01 03:35:43;;;;;;;2.90;1.85;;;;;;;11.08;67.50;100762.94;10301733;28;20077;-62
2021/10/01 03:40:46;;;;;;;3.35;1.40;;;;;;;10.99;67.43;100753.84;10301368;28;20810;-63
2021/10/01 03:45:47;;;;;;;4.68;1.92;;;;;;;11.01;67.58;100761.72;10302970;28;20100;-62
2021/10/01 03:50:49;;;;;;;4.53;2.13;;;;;;;10.94;67.50;100756.84;10304802;28;20070;-63
2021/10/01 03:55:50;;;;;;;4.97;2.55;;;;;;;10.90;67.79;100762.50;10299563;28;20133;-62
2021/10/01 04:00:51;;;;;;;3.95;2.65;;;;;;;10.83;67.98;100759.44;10296610;28;20046;-65
2021/10/01 04:05:53;;;;;;;3.97;3.03;;;;;;;10.88;67.59;100757.28;10298957;28;20061;-62
2021/10/01 04:10:54;;;;;;;3.45;2.65;;;;;;;10.83;67.83;100739.97;10300714;28;20081;-63
2021/10/01 04:15:56;;;;;;;6.68;2.55;;;;;;;10.76;68.33;100734.22;10314607;28;20133;-63
2021/10/01 04:20:57;;;;;;;2.65;2.03;;;;;;;10.71;68.18;100733.72;10298628;28;20405;-62
2021/10/01 04:25:59;;;;;;;4.90;2.75;;;;;;;10.73;68.53;100727.31;10303067;28;20108;-62
2021/10/01 04:31:01;;;;;;;4.55;2.70;;;;;;;10.72;68.79;100714.09;10303975;28;20073;-63
2021/10/01 04:36:02;;;;;;;3.15;2.42;;;;;;;10.72;68.70;100719.44;10291789;28;20108;-62
2021/10/01 04:41:05;;;;;;;4.72;3.20;;;;;;;10.65;68.62;100723.53;10297717;28;20134;-62
2021/10/01 04:46:08;;;;;;;6.85;2.63;;;;;;;10.65;68.55;100723.53;10289191;28;20102;-63
2021/10/01 04:51:09;;;;;;;3.45;2.30;;;;;;;10.64;69.14;100725.31;10289531;28;20121;-62
2021/10/01 04:56:11;;;;;;;4.70;2.63;;;;;;;10.66;68.77;100726.06;10301892;28;20074;-62
2021/10/01 05:01:12;;;;;;;3.92;2.13;;;;;;;10.64;68.76;100722.66;10291267;28;20110;-63
2021/10/01 05:06:14;;;;;;;5.13;2.72;;;;;;;10.64;68.86;100717.34;10305053;28;20058;-62
2021/10/01 05:11:15;;;;;;;7.57;2.88;;;;;;;10.65;68.66;100712.88;10320738;28;20491;-62
2021/10/01 05:16:16;;;;;;;6.47;4.00;;;;;;;10.65;68.53;100718.19;10304860;28;20050;-62
2021/10/01 05:21:18;;;;;;;4.65;3.17;;;;;;;10.66;68.52;100730.53;10305768;28;20076;-62
2021/10/01 05:26:19;;;;;;;5.47;3.35;;;;;;;10.76;68.36;100727.09;10305842;28;20568;-62
2021/10/01 05:31:21;;;;;;;4.78;2.50;;;;;;;10.76;68.22;100734.22;10301057;28;20094;-62
2021/10/01 05:36:22;;;;;;;5.72;2.42;;;;;;;10.70;68.13;100729.34;10303020;28;20442;-62
2021/10/01 05:41:24;;;;;;;5.63;2.25;;;;;;;10.66;68.52;100731.41;10330372;28;20058;-63
2021/10/01 05:46:26;;;;;;;6.55;2.78;;;;;;;10.72;68.45;100736.28;10265864;28;20070;-63
2021/10/01 05:51:30;;;;;;;5.35;2.15;;;;;;;10.77;68.43;100738.59;10273568;28;20469;-62
2021/10/01 05:56:31;;;;;;;5.97;2.13;;;;;;;10.86;68.22;100743.22;10258901;28;20527;-62
2021/10/01 06:01:34;;;;;;;4.63;2.88;;;;;;;10.89;68.31;100726.19;10259395;28;20133;-62
2021/10/01 06:06:36;;;;;;;5.60;2.67;;;;;;;10.90;68.12;100733.19;10279739;28;20858;-61
2021/10/01 06:11:39;;;;;;;7.00;2.55;;;;;;;10.96;67.69;100722.09;10282250;28;20173;-63
2021/10/01 06:16:40;;;;;;;6.13;2.78;;;;;;;11.01;67.39;100724.44;10279907;28;20160;-62
2021/10/01 06:21:41;;;;;;;8.38;2.30;;;;;;;11.12;66.53;100727.13;10283744;28;20054;-63
2021/10/01 06:26:43;;;;;;;7.15;2.80;;;;;;;11.29;66.99;100729.38;10281565;28;20192;-61
2021/10/01 06:31:46;;;;;;;6.20;2.67;;;;;;;11.56;66.07;100725.56;10285280;28;20066;-59
2021/10/01 06:36:47;;;;;;;5.70;2.10;;;;;;;11.79;64.70;100721.09;10283456;28;20050;-64
2021/10/01 06:41:49;;;;;;;7.80;3.10;;;;;;;11.82;64.70;100722.69;10283205;28;20274;-63
2021/10/01 06:46:54;;;;;;;4.82;2.50;;;;;;;11.92;64.79;100726.31;10298139;28;20145;-62
2021/10/01 08:21:44;;;;;;;5.82;2.83;;;;;;;14.81;55.95;100700.19;10288908;28;20145;-60
2021/10/01 08:26:49;;;;;;;5.60;2.78;;;;;;;14.91;53.66;100697.53;10295327;28;20046;-61
2021/10/01 08:31:51;;;;;;;8.33;2.97;;;;;;;15.02;54.68;100699.22;10289194;28;20118;-60
2021/10/01 08:36:52;;;;;;;5.85;2.95;;;;;;;15.33;53.53;100691.84;10287911;28;20522;-61
2021/10/01 08:41:54;;;;;;;4.55;2.78;;;;;;;15.68;52.61;100689.50;10287359;28;20301;-61
2021/10/01 08:46:57;;;;;;;6.35;2.67;;;;;;;16.11;51.85;100688.09;10284157;28;20506;-62
2021/10/01 08:51:59;;;;;;;5.93;2.92;;;;;;;16.22;51.74;100679.00;10283910;28;20082;-65
2021/10/01 08:57:00;;;;;;;4.70;2.72;;;;;;;16.37;50.13;100673.97;10282808;28;20054;-61
2021/10/01 09:02:02;;;;;;;2.65;2.10;;;;;;;16.34;49.67;100667.03;10281465;28;20551;-61
2021/10/01 09:07:04;;;;;;;2.58;2.08;;;;;;;16.73;50.86;100663.25;10295876;28;21194;-61
2021/10/01 09:12:07;;;;;;;3.80;2.28;;;;;;;17.12;48.84;100660.25;10282049;28;20248;-60
2021/10/01 09:17:17;;;;;;;6.45;2.60;;;;;;;17.23;48.64;100651.91;10282114;28;20464;-61
2021/10/01 09:22:30;;;;;;;5.35;2.55;;;;;;;17.60;48.11;100648.09;10282973;28;20057;-61
2021/10/01 09:27:36;;;;;;;5.63;2.83;;;;;;;17.98;47.47;100645.13;10284903;28;20468;-61
2021/10/01 09:32:39;;;;;;;6.45;2.28;;;;;;;18.68;46.04;100642.09;10280803;28;20189;-61
2021/10/01 09:37:41;;;;;;;3.33;1.73;;;;;;;19.02;43.73;100627.63;10282721;28;20113;-60
2021/10/01 09:42:47;;;;;;;4.32;1.85;;;;;;;19.28;43.15;100615.78;10283117;28;20723;-63
2021/10/01 09:47:50;;;;;;;4.57;1.98;;;;;;;19.88;41.72;100610.91;10283540;28;20058;-63
2021/10/01 09:52:54;;;;;;;2.47;1.55;;;;;;;20.77;40.02;100600.56;10280420;28;20054;-61
2021/10/01 09:58:02;;;;;;;3.38;1.40;;;;;;;22.80;35.15;100584.84;10280301;28;20050;-60
2021/10/01 10:03:04;;;;;;;4.28;1.33;;;;;;;24.28;32.98;100575.66;10278990;28;20066;-60
2021/10/01 10:08:05;;;;;;;6.35;1.55;;;;;;;25.42;30.78;100571.06;10277293;28;20080;-60
2021/10/01 10:13:08;;;;;;;2.03;1.10;;;;;;;24.44;30.81;100568.97;10279997;28;20632;-63
2021/10/01 10:18:18;;;;;;;1.73;0.85;;;;;;;23.93;30.83;100565.72;10281448;28;20058;-62
2021/10/01 10:23:20;;;;;;;3.03;1.20;;;;;;;24.17;30.98;100560.78;10277387;28;20542;-60
2021/10/01 10:28:22;;;;;;;5.10;1.05;;;;;;;25.50;29.78;100545.47;10285309;28;20050;-63
2021/10/01 10:33:40;;;;;;;3.08;1.40;;;;;;;29.35;22.98;100536.09;10287632;28;20137;-62
2021/10/01 10:38:41;;;;;;;3.65;1.23;;;;;;;32.48;21.00;100519.94;10296414;28;20066;-63
2021/10/01 10:43:47;;;;;;;2.63;1.10;;;;;;;35.32;17.36;100514.03;10293487;28;20054;-60
2021/10/01 10:49:33;;;;;;;2.10;1.08;;;;;;;35.79;16.69;100507.16;10290477;28;20220;-61
2021/10/01 10:54:38;;;;;;;4.22;0.95;;;;;;;37.04;15.80;100482.78;10260190;28;20137;-61
2021/10/01 10:59:39;;;;;;;2.70;1.13;;;;;;;38.52;14.06;100473.41;10249295;28;20274;-64
2021/10/01 11:04:41;;;;;;;6.18;1.25;;;;;;;38.67;13.94;100459.25;10287666;28;20137;-64
2021/10/01 11:09:42;;;;;;;3.00;1.23;;;;;;;38.47;13.85;100451.28;10287105;28;20186;-62
2021/10/01 11:14:44;;;;;;;1.90;0.60;;;;;;;39.63;12.99;100448.34;10288289;28;20039;-63
2021/10/01 11:19:50;;;;;;;4.32;1.02;;;;;;;38.83;13.84;100445.06;10288589;28;20168;-63
2021/10/01 11:25:02;;;;;;;2.92;0.98;;;;;;;39.76;12.69;100444.69;10285741;28;20082;-63
2021/10/01 11:30:11;;;;;;;7.38;0.80;;;;;;;41.07;11.55;100430.63;10286081;28;20042;-63
2021/10/01 11:35:13;;;;;;;1.88;0.70;;;;;;;39.67;12.55;100429.88;10284564;28;20193;-63
2021/10/01 11:40:30;;;;;;;1.60;0.60;;;;;;;40.04;12.69;100418.69;10281036;28;20214;-63
2021/10/01 11:45:35;;;;;;;2.72;0.93;;;;;;;39.20;12.00;100404.22;10285677;28;20084;-63
2021/10/01 11:50:46;;;;;;;1.90;0.65;;;;;;;41.07;11.13;100402.72;10286720;28;20062;-64
2021/10/01 11:56:03;;;;;;;2.80;0.73;;;;;;;40.93;11.19;100396.47;10335144;23;20136;-66
2021/10/01 12:01:17;;;;;;;2.83;0.70;;;;;;;40.09;11.88;100387.91;10281350;28;20077;-67
2021/10/01 12:06:21;;;;;;;2.10;0.60;;;;;;;40.92;11.60;100378.91;10300569;28;20050;-67
2021/10/01 12:11:29;;;;;;;3.75;1.10;;;;;;;41.01;11.22;100364.97;10303249;28;20053;-67
2021/10/01 12:16:30;;;;;;;1.85;0.70;;;;;;;41.90;10.72;100347.03;10299594;28;20412;-67
2021/10/01 12:21:35;;;;;;;3.50;0.55;;;;;;;42.53;10.55;100348.13;10273892;28;20506;-67
2021/10/01 12:26:44;;;;;;;1.60;0.65;;;;;;;42.34;10.10;100336.53;10261785;28;20118;-67
2021/10/01 12:32:03;;;;;;;1.65;0.40;;;;;;;42.86;10.01;100327.84;10259290;28;20057;-67
2021/10/01 12:37:07;;;;;;;2.13;0.77;;;;;;;43.29;9.78;100311.06;10261782;28;20062;-67
2021/10/01 12:42:12;;;;;;;2.97;0.70;;;;;;;43.93;9.50;100320.97;10266801;28;20051;-67
2021/10/01 12:47:16;;;;;;;2.15;0.47;;;;;;;44.89;9.40;100294.44;10260868;28;20046;-67
2021/10/01 12:52:22;;;;;;;2.08;0.57;;;;;;;45.47;8.72;100294.09;10258999;28;20077;-67
2021/10/01 12:57:29;;;;;;;1.50;0.40;;;;;;;46.10;7.73;100274.84;10275380;28;20175;-67
2021/10/01 13:02:33;;;;;;;2.75;0.52;;;;;;;45.88;7.87;100260.22;10260089;28;20597;-67
2021/10/01 13:08:04;;;;;;;1.75;0.82;;;;;;;46.61;7.76;100269.22;10259364;28;20210;-66
2021/10/01 13:13:18;;;;;;;1.48;0.82;;;;;;;45.93;8.38;100245.91;10249132;28;20137;-66
2021/10/01 13:18:20;;;;;;;2.38;0.50;;;;;;;45.24;8.83;100250.88;10258103;28;20657;-68
2021/10/01 13:23:31;;;;;;;3.33;0.30;;;;;;;45.11;8.49;100248.13;10258091;28;20139;-67
2021/10/01 13:28:36;;;;;;;1.90;0.50;;;;;;;44.18;9.62;100236.88;10259032;28;20055;-68
2021/10/01 13:33:39;;;;;;;3.17;0.75;;;;;;;44.33;9.69;100224.16;10257568;28;20039;-67
2021/10/01 13:38:43;;;;;;;4.13;0.52;;;;;;;43.65;9.94;100225.53;10257851;28;20141;-68
2021/10/01 13:43:46;;;;;;;2.60;0.40;;;;;;;38.95;12.89;100233.91;10272183;28;20049;-68
2021/10/01 13:48:49;;;;;;;2.05;0.50;;;;;;;40.61;11.77;100215.25;10257751;28;20142;-68
2021/10/01 13:53:51;;;;;;;2.63;0.55;;;;;;;41.29;11.12;100225.06;10254722;28;20074;-67
2021/10/01 13:58:53;;;;;;;3.30;0.30;;;;;;;41.02;11.12;100212.28;10267445;28;20053;-68
2021/10/01 14:03:54;;;;;;;4.97;0.65;;;;;;;39.81;10.40;100195.00;10254598;28;20054;-67
2021/10/01 14:08:57;;;;;;;1.05;0.35;;;;;;;36.40;12.67;100211.31;10253687;28;20446;-67
2021/10/01 14:14:19;;;;;;;2.45;0.47;;;;;;;33.33;15.53;100211.06;10261418;28;20046;-67
2021/10/01 14:19:20;;;;;;;3.42;0.57;;;;;;;30.40;18.00;100192.72;10255044;28;20043;-67
2021/10/01 14:24:21;;;;;;;1.83;0.40;;;;;;;28.94;18.92;100190.00;10254768;28;20054;-67
2021/10/01 14:29:23;;;;;;;0.88;0.28;;;;;;;28.10;20.16;100191.34;10255474;28;20042;-64
2021/10/01 14:34:24;;;;;;;3.08;0.60;;;;;;;26.77;22.15;100179.69;10252707;28;20170;-65
2021/10/01 14:39:25;;;;;;;;;;;;;;;26.05;22.94;100193.22;10255779;28;20125;-64
2021/10/01 14:44:27;;;;;;;2.80;0.50;;;;;;;25.48;23.48;100177.00;10255019;28;19964;-66
2021/10/01 14:49:28;;;;;;;2.30;1.33;;;;;;;24.51;24.51;100194.34;10255510;28;20053;-65
2021/10/01 14:54:30;;;;;;;1.55;0.65;;;;;;;23.74;25.29;100175.13;10254620;28;20423;-65
2021/10/01 14:59:31;;;;;;;2.20;0.60;;;;;;;23.22;26.07;100158.66;10254710;28;20051;-64
2021/10/01 15:04:34;;;;;;;1.38;0.45;;;;;;;23.05;27.18;100158.22;10254621;28;20078;-64
2021/10/01 15:09:36;;;;;;;1.35;0.35;;;;;;;22.76;27.38;100154.84;10253577;28;20398;-64
2021/10/01 15:14:37;;;;;;;1.58;0.60;;;;;;;22.49;28.37;100164.78;10272695;28;20126;-64
2021/10/01 15:19:39;;;;;;;2.17;0.55;;;;;;;22.18;28.60;100136.31;10262008;28;20050;-65
2021/10/01 15:24:40;;;;;;;3.40;0.82;;;;;;;21.92;28.55;100147.84;10262495;28;20054;-66
2021/10/01 15:30:00;;;;;;;3.03;0.68;;;;;;;21.91;29.42;100146.19;10276581;28;20055;-66
2021/10/01 15:35:03;;;;;;;2.45;0.98;;;;;;;21.81;30.33;100151.97;10264339;28;20049;-64
2021/10/01 15:40:05;;;;;;;3.08;0.82;;;;;;;21.39;30.33;100138.31;10268378;28;20114;-64
2021/10/01 15:45:08;;;;;;;3.75;1.30;;;;;;;21.37;31.21;100149.34;10280480;28;20047;-65
2021/10/01 15:50:12;;;;;;;3.20;0.80;;;;;;;21.05;31.89;100149.91;10258868;28;20266;-64
2021/10/01 15:55:20;;;;;;;2.95;0.80;;;;;;;20.80;32.41;100145.75;10275471;28;20147;-65
2021/10/01 16:00:23;;;;;;;1.70;0.93;;;;;;;20.80;32.92;100145.75;10259805;28;20054;-64
2021/10/01 16:05:24;;;;;;;3.08;1.30;;;;;;;20.72;33.18;100126.94;10261442;28;20128;-69
2021/10/01 16:10:26;;;;;;;2.67;1.48;;;;;;;20.79;33.63;100133.25;10274719;28;20153;-65
2021/10/01 16:15:27;;;;;;;3.03;1.02;;;;;;;20.26;34.27;100106.47;10256268;28;20039;-66
2021/10/01 16:20:30;;;;;;;3.20;1.33;;;;;;;20.32;34.56;100126.50;10249308;28;20809;-67
2021/10/01 16:25:33;;;;;;;2.38;1.50;;;;;;;20.23;35.31;100139.28;10252017;28;20125;-66
2021/10/01 16:30:36;;;;;;;2.53;1.10;;;;;;;19.90;35.80;100133.47;10256439;28;20138;-65
2021/10/01 16:35:38;;;;;;;7.50;1.83;;;;;;;19.85;36.38;100130.50;10254653;28;20133;-66
2021/10/01 16:40:43;;;;;;;3.50;2.30;;;;;;;19.80;36.82;100127.50;10274204;28;20046;-66
2021/10/01 16:45:47;;;;;;;2.85;1.83;;;;;;;19.66;37.16;100121.06;10260538;28;20492;-66
2021/10/01 16:50:48;;;;;;;3.60;1.45;;;;;;;19.54;36.96;100105.31;10262987;28;20517;-68
2021/10/01 16:55:50;;;;;;;1.58;1.23;;;;;;;19.36;37.50;100102.13;10258398;28;20134;-65
2021/10/01 17:00:51;;;;;;;4.35;1.42;;;;;;;19.31;38.07;100118.88;10260863;28;20050;-68
2021/10/01 17:05:53;;;;;;;2.97;1.00;;;;;;;19.19;39.04;100113.09;10258280;28;20055;-66
2021/10/01 17:10:54;;;;;;;3.97;1.40;;;;;;;19.11;39.29;100117.72;10257567;28;20125;-67
2021/10/01 17:15:56;;;;;;;1.65;1.25;;;;;;;18.92;39.81;100117.22;10259016;28;20073;-65
2021/10/01 17:20:57;;;;;;;4.65;2.67;;;;;;;18.91;40.39;100115.53;10249272;28;20214;-66
2021/10/01 17:25:59;;;;;;;2.90;1.70;;;;;;;18.87;41.39;100128.56;10256776;28;20134;-67
2021/10/01 17:31:02;;;;;;;5.07;2.72;;;;;;;18.73;40.54;100113.97;10257390;28;20081;-66
2021/10/01 17:36:04;;;;;;;5.15;2.65;;;;;;;18.74;42.89;100122.88;10254670;28;20042;-67
2021/10/01 17:41:05;;;;;;;3.97;3.05;;;;;;;18.72;41.48;100119.53;10256536;28;20058;-64
2021/10/01 17:46:07;;;;;;;5.22;3.28;;;;;;;18.68;43.06;100127.13;10257039;28;20061;-66
2021/10/01 17:51:08;;;;;;;6.05;2.50;;;;;;;18.55;43.69;100113.41;10257130;28;20047;-64
2021/10/01 17:56:10;;;;;;;4.30;2.25;;;;;;;18.54;43.23;100126.06;10256785;28;20042;-66
2021/10/01 18:01:11;;;;;;;3.00;2.40;;;;;;;18.47;43.19;100116.19;10258256;28;20045;-65
2021/10/01 18:06:13;;;;;;;4.10;2.00;;;;;;;18.42;43.59;100118.53;10256954;28;20074;-65
2021/10/01 18:11:15;;;;;;;6.00;2.88;;;;;;;18.30;43.82;100116.28;10255779;28;20133;-66
2021/10/01 18:16:16;;;;;;;5.97;3.58;;;;;;;18.23;44.41;100118.00;10255502;28;20130;-64
2021/10/01 18:21:18;;;;;;;6.97;4.93;;;;;;;18.14;44.78;100109.09;10255176;28;20121;-67
2021/10/01 18:26:22;;;;;;;5.60;2.00;;;;;;;17.99;44.61;100092.84;10254307;28;20425;-65
2021/10/01 18:31:23;;;;;;;3.28;2.45;;;;;;;17.92;45.57;100088.34;10271251;28;20548;-67
2021/10/01 18:36:25;;;;;;;2.78;1.80;;;;;;;17.82;45.62;100080.47;10255822;28;20078;-65
2021/10/01 18:41:26;;;;;;;2.97;1.63;;;;;;;17.90;45.67;100098.47;10257311;28;20057;-64
2021/10/01 18:46:28;;;;;;;3.95;2.05;;;;;;;17.80;45.55;100093.25;10278055;28;20066;-65
2021/10/01 18:51:29;;;;;;;3.83;2.22;;;;;;;17.80;46.82;100104.84;10303030;28;20054;-65
2021/10/01 18:56:31;;;;;;;5.13;2.65;;;;;;;17.86;47.41;100108.69;10305314;28;20062;-66
2021/10/01 19:01:33;;;;;;;6.05;3.15;;;;;;;17.76;46.53;100087.38;10303394;28;20062;-67
2021/10/01 19:06:36;;;;;;;5.78;4.18;;;;;;;17.72;46.82;100086.06;10266153;28;20747;-67
2021/10/01 19:11:37;;;;;;;5.70;3.17;;;;;;;17.61;47.27;100092.66;10262186;28;20141;-70
2021/10/01 19:16:40;;;;;;;5.78;2.55;;;;;;;17.62;47.68;100102.38;10275694;28;20053;-65
2021/10/01 19:21:42;;;;;;;6.07;2.90;;;;;;;17.58;47.63;100098.38;10276209;28;20066;-66
2021/10/01 19:26:56;;;;;;;4.70;2.05;;;;;;;17.44;47.76;100093.69;10263502;28;20061;-65
2021/10/01 19:31:58;;;;;;;3.47;2.35;;;;;;;17.43;48.20;100106.31;10262512;28;20057;-65
2021/10/01 19:36:59;;;;;;;4.20;3.17;;;;;;;17.36;48.80;100096.44;10263216;28;20054;-67
2021/10/01 19:42:02;;;;;;;4.07;3.00;;;;;;;17.25;49.24;100106.53;10286164;23;20069;-62
2021/10/01 19:47:04;;;;;;;5.07;3.50;;;;;;;17.08;50.15;100097.66;10258486;28;20944;-62
2021/10/01 19:52:05;;;;;;;7.03;5.32;;;;;;;17.01;50.42;100093.97;10253085;28;20134;-62
2021/10/01 19:57:07;;;;;;;5.63;4.43;;;;;;;16.92;50.76;100094.97;10252364;28;20422;-62
2021/10/01 20:02:11;;;;;;;4.18;3.67;;;;;;;16.80;51.03;100097.13;10252936;28;20121;-62
2021/10/01 20:07:12;;;;;;;5.82;3.85;;;;;;;16.77;51.60;100108.22;10252452;28;20074;-62
2021/10/01 20:12:15;;;;;;;4.50;3.22;;;;;;;16.66;51.68;100105.84;10249354;28;20058;-62
2021/10/01 20:17:17;;;;;;;4.18;3.78;;;;;;;16.54;52.12;100106.19;10251078;28;20413;-62
2021/10/01 20:48:54;;;;;;;7.97;4.88;;;;;;;16.22;54.25;100094.34;10232079;28;20689;-64
2021/10/01 20:53:56;;;;;;;4.90;4.10;;;;;;;16.21;54.81;100098.06;10244780;28;20086;-62
2021/10/01 20:59:03;;;;;;;5.75;4.32;;;;;;;16.21;54.36;100097.19;10245434;28;20138;-62
2021/10/01 21:51:40;;;;;;;5.43;3.53;;;;;;;15.88;56.33;100099.78;10278232;28;20050;-62
2021/10/01 21:56:42;;;;;;;7.32;3.92;;;;;;;15.87;56.42;100098.13;10315520;28;20062;-62
2021/10/01 22:01:45;;;;;;;6.43;3.85;;;;;;;15.84;56.79;100090.41;10321189;28;20065;-63
2021/10/01 22:22:52;;;;;;;6.40;4.63;;;;;;;15.78;57.51;100096.38;10305359;28;20112;-62
2021/10/01 22:27:57;;;;;;;6.70;4.65;;;;;;;15.69;57.42;100088.28;10278781;28;20385;-63
2021/10/01 22:33:00;;;;;;;7.63;3.83;;;;;;;15.72;57.69;100087.13;10273380;28;20082;-62
2021/10/01 22:38:01;;;;;;;5.20;3.30;;;;;;;15.73;57.83;100084.28;10270385;28;20080;-63
2021/10/01 22:43:06;;;;;;;6.28;4.13;;;;;;;15.78;57.74;100081.13;10278367;28;20481;-62
2021/10/01 22:48:14;;;;;;;6.78;4.68;;;;;;;15.75;58.39;100084.13;10271086;28;20082;-62
2021/10/01 22:53:16;;;;;;;6.63;5.05;;;;;;;15.69;58.84;100087.44;10274074;28;20101;-61
2021/10/01 22:58:18;;;;;;;5.78;4.03;;;;;;;15.64;58.57;100081.69;10282028;28;20067;-62
2021/10/01 23:03:25;;;;;;;5.57;4.07;;;;;;;15.65;58.73;100081.53;10279080;28;20043;-61
2021/10/01 23:08:27;;;;;;;6.40;3.38;;;;;;;15.68;58.72;100081.22;10279343;28;20050;-62
2021/10/01 23:51:20;;;;;;;7.20;5.63;;;;;;;15.29;60.59;100073.63;10278795;28;20551;-61
